createdAt,value
2018-07-17T00:00:07.874Z,10.50
2018-07-17T00:02:36.553Z,11.40
2018-07-17T00:05:06.532Z,11.57
2018-07-17T00:07:35.242Z,10.73
2018-07-17T00:10:03.954Z,10.07
2018-07-17T00:12:32.529Z,11.83
2018-07-17T00:15:01.146Z,10.63
2018-07-17T00:17:29.758Z,13.93
2018-07-17T00:19:58.374Z,11.00
2018-07-17T00:22:26.974Z,11.13
2018-07-17T00:24:55.549Z,10.87
2018-07-17T00:27:24.153Z,10.60
2018-07-17T00:29:52.746Z,10.00
2018-07-17T00:32:21.381Z,10.07
2018-07-17T00:34:49.989Z,10.17
2018-07-17T00:37:18.629Z,11.83
2018-07-17T00:39:47.225Z,11.47
2018-07-17T00:42:15.825Z,10.90
2018-07-17T00:44:44.461Z,11.30
2018-07-17T00:47:13.104Z,10.70
2018-07-17T00:49:41.768Z,11.07
2018-07-17T00:52:10.353Z,10.60
2018-07-17T00:54:38.955Z,10.00
2018-07-17T00:57:07.573Z,10.47
2018-07-17T00:59:36.169Z,10.77
2018-07-17T01:02:10.128Z,15.27
2018-07-17T01:04:43.879Z,10.47
2018-07-17T01:07:17.926Z,10.83
2018-07-17T01:09:51.627Z,13.00
2018-07-17T01:12:19.434Z,12.10
2018-07-17T01:15:05.341Z,11.93
2018-07-17T01:17:35.096Z,12.20
2018-07-17T01:20:03.744Z,11.77
2018-07-17T01:22:32.385Z,12.10
2018-07-17T01:25:00.969Z,12.57
2018-07-17T01:27:29.597Z,12.70
2018-07-17T01:29:58.194Z,11.87
2018-07-17T01:32:26.841Z,14.67
2018-07-17T01:34:55.454Z,15.57
2018-07-17T01:37:24.135Z,12.80
2018-07-17T01:39:52.698Z,12.07
2018-07-17T01:42:21.309Z,11.37
2018-07-17T01:44:49.909Z,13.53
2018-07-17T01:47:18.604Z,11.07
2018-07-17T01:49:47.173Z,11.57
2018-07-17T01:52:15.817Z,11.63
2018-07-17T01:54:44.416Z,12.80
2018-07-17T01:57:13.031Z,14.87
2018-07-17T01:59:41.598Z,13.20
2018-07-17T02:02:10.186Z,16.30
2018-07-17T02:04:38.792Z,16.10
2018-07-17T02:07:07.665Z,17.30
2018-07-17T02:09:36.261Z,12.00
2018-07-17T02:12:04.857Z,12.90
2018-07-17T02:14:33.502Z,13.60
2018-07-17T02:17:02.153Z,18.27
2018-07-17T02:19:30.723Z,13.17
2018-07-17T02:21:59.352Z,13.27
2018-07-17T02:24:28.057Z,12.93
2018-07-17T02:26:56.750Z,14.27
2018-07-17T02:29:25.323Z,15.00
2018-07-17T02:31:53.945Z,12.57
2018-07-17T02:34:22.558Z,12.60
2018-07-17T02:36:51.137Z,12.07
2018-07-17T02:39:19.732Z,12.17
2018-07-17T02:41:51.277Z,11.43
2018-07-17T02:44:20.111Z,11.40
2018-07-17T02:46:48.693Z,12.20
2018-07-17T02:49:17.463Z,12.57
2018-07-17T02:51:46.061Z,12.47
2018-07-17T02:54:14.679Z,12.67
2018-07-17T02:56:43.274Z,14.47
2018-07-17T02:59:11.890Z,11.53
2018-07-17T03:01:40.576Z,12.10
2018-07-17T03:04:09.252Z,12.10
2018-07-17T03:06:37.881Z,12.90
2018-07-17T03:09:06.993Z,11.60
2018-07-17T03:11:35.618Z,11.30
2018-07-17T03:14:04.277Z,12.67
2018-07-17T03:16:32.904Z,13.57
2018-07-17T03:19:01.497Z,13.40
2018-07-17T03:21:30.155Z,12.80
2018-07-17T03:23:58.741Z,14.57
2018-07-17T03:26:27.346Z,12.77
2018-07-17T03:28:55.597Z,15.27
2018-07-17T03:31:24.201Z,14.30
2018-07-17T03:33:52.785Z,14.03
2018-07-17T03:36:21.476Z,12.83
2018-07-17T03:38:50.106Z,14.10
2018-07-17T03:41:18.677Z,14.33
2018-07-17T03:43:47.294Z,11.77
2018-07-17T03:46:15.883Z,12.53
2018-07-17T03:48:44.487Z,13.00
2018-07-17T03:51:13.129Z,12.10
2018-07-17T03:53:41.763Z,13.00
2018-07-17T03:56:10.337Z,13.03
2018-07-17T03:58:38.937Z,16.80
2018-07-17T04:01:07.579Z,13.93
2018-07-17T04:03:36.222Z,14.97
2018-07-17T04:06:04.997Z,15.03
2018-07-17T04:08:33.701Z,16.00
2018-07-17T04:11:02.309Z,14.63
2018-07-17T04:13:30.953Z,15.80
2018-07-17T04:15:59.608Z,16.47
2018-07-17T04:18:28.301Z,16.00
2018-07-17T04:20:56.886Z,17.20
2018-07-17T04:23:25.506Z,15.43
2018-07-17T04:25:54.222Z,15.00
2018-07-17T04:28:23.020Z,15.23
2018-07-17T04:30:51.630Z,16.23
2018-07-17T04:33:20.321Z,13.77
2018-07-17T04:35:48.922Z,16.33
2018-07-17T04:38:17.637Z,13.87
2018-07-17T04:40:46.299Z,13.73
2018-07-17T04:43:14.953Z,13.87
2018-07-17T04:45:43.546Z,14.03
2018-07-17T04:48:12.167Z,16.57
2018-07-17T04:50:41.053Z,14.47
2018-07-17T04:53:09.752Z,13.80
2018-07-17T04:55:37.997Z,13.63
2018-07-17T04:58:06.701Z,14.90
2018-07-17T05:00:35.615Z,15.77
2018-07-17T05:03:04.359Z,16.17
2018-07-17T05:05:33.705Z,17.30
2018-07-17T05:08:02.550Z,15.50
2018-07-17T05:10:31.170Z,16.30
2018-07-17T05:12:59.861Z,17.43
2018-07-17T05:15:28.393Z,15.73
2018-07-17T05:17:57.449Z,17.73
2018-07-17T05:20:26.269Z,18.10
2018-07-17T05:22:55.219Z,20.50
2018-07-17T05:25:23.778Z,13.83
2018-07-17T05:27:52.574Z,16.03
2018-07-17T05:30:21.220Z,18.37
2018-07-17T05:32:49.993Z,15.27
2018-07-17T05:35:18.805Z,16.33
2018-07-17T05:37:47.589Z,18.70
2018-07-17T05:40:16.544Z,19.97
2018-07-17T05:42:45.306Z,18.10
2018-07-17T05:45:13.894Z,17.73
2018-07-17T05:47:42.527Z,21.13
2018-07-17T05:50:12.288Z,15.90
2018-07-17T05:52:41.360Z,18.47
2018-07-17T05:55:10.003Z,17.23
2018-07-17T05:57:38.759Z,18.60
2018-07-17T06:00:11.565Z,17.60
2018-07-17T06:02:40.326Z,18.57
2018-07-17T06:05:09.157Z,17.27
2018-07-17T06:07:38.076Z,17.27
2018-07-17T06:10:06.874Z,17.83
2018-07-17T06:12:35.508Z,17.33
2018-07-17T06:15:04.453Z,17.73
2018-07-17T06:17:33.058Z,16.80
2018-07-17T06:20:01.752Z,18.67
2018-07-17T06:22:30.353Z,17.83
2018-07-17T06:24:59.203Z,18.30
2018-07-17T06:27:27.765Z,18.57
2018-07-17T06:29:56.412Z,20.23
2018-07-17T06:32:25.110Z,20.17
2018-07-17T06:34:53.722Z,19.13
2018-07-17T06:37:22.425Z,20.00
2018-07-17T06:39:51.014Z,20.00
2018-07-17T06:42:20.110Z,20.43
2018-07-17T06:44:48.989Z,19.83
2018-07-17T06:47:17.631Z,20.40
2018-07-17T06:49:46.310Z,20.23
2018-07-17T06:52:14.890Z,19.77
2018-07-17T06:54:43.621Z,19.63
2018-07-17T06:57:12.214Z,19.87
2018-07-17T06:59:40.870Z,20.13
2018-07-17T07:02:09.478Z,18.70
2018-07-17T07:04:38.090Z,19.03
2018-07-17T07:07:07.052Z,19.70
2018-07-17T07:09:35.769Z,19.67
2018-07-17T07:12:04.585Z,19.07
2018-07-17T07:14:33.281Z,19.83
2018-07-17T07:17:01.897Z,20.97
2018-07-17T07:19:30.578Z,19.40
2018-07-17T07:21:59.165Z,20.50
2018-07-17T07:24:27.793Z,19.83
2018-07-17T07:26:56.383Z,18.97
2018-07-17T07:29:25.036Z,19.43
2018-07-17T07:31:53.734Z,18.97
2018-07-17T07:34:22.365Z,19.87
2018-07-17T07:36:51.028Z,20.03
2018-07-17T07:39:19.625Z,20.33
2018-07-17T07:41:47.880Z,20.33
2018-07-17T07:44:16.477Z,20.30
2018-07-17T07:46:45.105Z,21.03
2018-07-17T07:49:13.808Z,22.03
2018-07-17T07:51:42.441Z,20.20
2018-07-17T07:54:11.077Z,19.43
2018-07-17T07:56:39.687Z,19.60
2018-07-17T07:59:08.305Z,20.07
2018-07-17T08:01:36.885Z,19.63
2018-07-17T08:04:05.939Z,21.43
2018-07-17T08:06:34.491Z,19.60
2018-07-17T08:09:03.446Z,18.43
2018-07-17T08:11:32.078Z,18.97
2018-07-17T08:14:00.711Z,19.23
2018-07-17T08:16:29.513Z,19.63
2018-07-17T08:18:58.125Z,18.67
2018-07-17T08:21:26.833Z,19.70
2018-07-17T08:23:55.449Z,19.17
2018-07-17T08:26:24.081Z,19.83
2018-07-17T08:28:52.728Z,19.17
2018-07-17T08:31:21.400Z,20.00
2018-07-17T08:33:50.039Z,20.17
2018-07-17T08:36:18.653Z,20.83
2018-07-17T08:38:47.233Z,20.73
2018-07-17T08:41:15.885Z,19.33
2018-07-17T08:43:44.562Z,21.07
2018-07-17T08:46:13.133Z,20.77
2018-07-17T08:48:41.726Z,21.87
2018-07-17T08:51:10.362Z,21.93
2018-07-17T08:53:38.961Z,21.37
2018-07-17T08:56:07.201Z,19.50
2018-07-17T08:58:35.814Z,18.47
2018-07-17T09:01:04.417Z,19.00
2018-07-17T09:03:33.006Z,19.20
2018-07-17T09:06:01.738Z,19.27
2018-07-17T09:08:30.421Z,15.90
2018-07-17T09:10:59.056Z,18.05
2018-07-17T09:13:27.681Z,19.52
2018-07-17T09:15:56.266Z,18.85
2018-07-17T09:18:24.865Z,17.87
2018-07-17T09:20:53.461Z,19.10
2018-07-17T09:23:22.124Z,16.20
2018-07-17T09:25:50.773Z,16.48
2018-07-17T09:28:19.435Z,17.87
2018-07-17T09:30:53.274Z,18.48
2018-07-17T09:33:21.878Z,19.55
2018-07-17T09:35:50.470Z,21.30
2018-07-17T09:38:19.093Z,20.23
2018-07-17T09:40:47.728Z,20.82
2018-07-17T09:43:16.344Z,20.10
2018-07-17T09:45:44.957Z,19.20
2018-07-17T09:48:13.529Z,20.65
2018-07-17T09:50:42.153Z,18.50
2018-07-17T09:53:10.745Z,18.75
2018-07-17T09:55:39.381Z,19.37
2018-07-17T09:58:08.133Z,18.67
2018-07-17T10:00:41.979Z,20.30
2018-07-17T10:03:11.455Z,18.55
2018-07-17T10:05:40.107Z,19.48
2018-07-17T10:08:08.723Z,19.92
2018-07-17T10:10:37.318Z,18.37
2018-07-17T10:13:06.161Z,21.70
2018-07-17T10:15:34.769Z,18.87
2018-07-17T10:18:03.359Z,19.95
2018-07-17T10:20:32.676Z,20.52
2018-07-17T10:23:01.271Z,20.70
2018-07-17T10:25:29.882Z,17.82
2018-07-17T10:27:58.474Z,17.67
2018-07-17T10:30:27.137Z,16.55
2018-07-17T10:32:55.837Z,14.63
2018-07-17T10:35:24.398Z,14.93
2018-07-17T10:37:52.985Z,13.60
2018-07-17T10:40:21.582Z,13.25
2018-07-17T10:42:50.245Z,13.50
2018-07-17T10:45:18.925Z,13.13
2018-07-17T10:47:47.534Z,11.80
2018-07-17T10:50:16.198Z,13.22
2018-07-17T10:52:44.826Z,13.05
2018-07-17T10:55:13.405Z,13.00
2018-07-17T10:57:42.095Z,13.40
2018-07-17T11:00:10.685Z,12.98
2018-07-17T11:02:39.322Z,13.03
2018-07-17T11:05:07.963Z,11.97
2018-07-17T11:07:36.798Z,12.23
2018-07-17T11:10:05.496Z,12.53
2018-07-17T11:12:34.089Z,12.45
2018-07-17T11:15:02.762Z,12.18
2018-07-17T11:17:31.373Z,12.78
2018-07-17T11:19:59.978Z,12.85
2018-07-17T11:22:28.605Z,11.18
2018-07-17T11:24:57.285Z,12.07
2018-07-17T11:27:29.412Z,11.53
2018-07-17T11:29:58.075Z,11.50
2018-07-17T11:32:26.686Z,11.70
2018-07-17T11:34:55.278Z,11.57
2018-07-17T11:37:23.889Z,12.28
2018-07-17T11:39:52.501Z,10.98
2018-07-17T11:42:21.086Z,11.33
2018-07-17T11:44:49.663Z,12.25
2018-07-17T11:47:18.302Z,12.33
2018-07-17T11:49:46.893Z,12.33
2018-07-17T11:52:15.846Z,12.03
2018-07-17T11:54:44.473Z,12.30
2018-07-17T11:57:13.091Z,12.00
2018-07-17T11:59:41.676Z,11.97
2018-07-17T12:02:10.270Z,10.75
2018-07-17T12:04:38.861Z,11.78
2018-07-17T12:07:07.499Z,11.38
2018-07-17T12:09:36.113Z,12.80
2018-07-17T12:12:04.741Z,11.35
2018-07-17T12:14:33.361Z,12.15
2018-07-17T12:17:01.981Z,11.57
2018-07-17T12:19:30.574Z,12.10
2018-07-17T12:21:59.160Z,11.38
2018-07-17T12:24:27.766Z,11.40
2018-07-17T12:26:56.396Z,11.95
2018-07-17T12:29:25.080Z,11.40
2018-07-17T12:31:53.694Z,11.55
2018-07-17T12:34:22.333Z,12.30
2018-07-17T12:36:50.897Z,12.37
2018-07-17T12:39:19.520Z,11.97
2018-07-17T12:41:48.124Z,12.33
2018-07-17T12:44:16.765Z,13.18
2018-07-17T12:46:45.409Z,13.85
2018-07-17T12:49:14.041Z,13.93
2018-07-17T12:51:42.629Z,13.72
2018-07-17T12:54:11.242Z,12.78
2018-07-17T12:56:39.901Z,13.28
2018-07-17T12:59:08.494Z,12.03
2018-07-17T13:01:37.137Z,10.88
2018-07-17T13:04:05.793Z,11.75
2018-07-17T13:06:34.411Z,10.93
2018-07-17T13:09:03.148Z,11.25
2018-07-17T13:11:32.589Z,12.28
2018-07-17T13:14:01.189Z,11.33
2018-07-17T13:16:29.765Z,11.60
2018-07-17T13:18:58.370Z,12.35
2018-07-17T13:21:27.009Z,14.00
2018-07-17T13:23:55.958Z,12.50
2018-07-17T13:26:24.589Z,13.38
2018-07-17T13:28:53.488Z,12.07
2018-07-17T13:31:22.117Z,11.75
2018-07-17T13:33:50.788Z,11.48
2018-07-17T13:36:20.308Z,10.30
2018-07-17T13:38:48.909Z,10.85
2018-07-17T13:41:17.523Z,11.08
2018-07-17T13:43:46.193Z,10.43
2018-07-17T13:46:14.729Z,10.55
2018-07-17T13:48:43.325Z,10.50
2018-07-17T13:51:11.967Z,10.30
2018-07-17T13:53:40.545Z,10.63
2018-07-17T13:56:09.186Z,9.85
2018-07-17T13:58:37.785Z,10.20
2018-07-17T14:01:06.426Z,11.12
2018-07-17T14:03:35.000Z,10.40
2018-07-17T14:06:03.633Z,10.85
2018-07-17T14:08:32.970Z,10.72
2018-07-17T14:11:01.634Z,11.00
2018-07-17T14:13:30.241Z,11.15
2018-07-17T14:15:58.873Z,10.60
2018-07-17T14:18:27.466Z,10.30
2018-07-17T14:20:56.053Z,10.90
2018-07-17T14:23:24.724Z,11.05
2018-07-17T14:25:53.714Z,10.88
2018-07-17T14:28:22.296Z,10.48
2018-07-17T14:30:50.885Z,10.60
2018-07-17T14:33:19.485Z,11.10
2018-07-17T14:35:48.143Z,11.65
2018-07-17T14:38:16.766Z,11.83
2018-07-17T14:40:45.380Z,11.65
2018-07-17T14:43:13.981Z,10.55
2018-07-17T14:45:42.565Z,9.50
2018-07-17T14:48:11.209Z,10.40
2018-07-17T14:50:39.836Z,10.10
2018-07-17T14:53:08.490Z,10.75
2018-07-17T14:55:37.076Z,10.20
2018-07-17T14:58:05.840Z,10.80
2018-07-17T15:00:34.457Z,10.65
2018-07-17T15:03:03.085Z,10.88
2018-07-17T15:05:31.642Z,10.93
2018-07-17T15:08:00.277Z,10.90
2018-07-17T15:10:28.840Z,11.18
2018-07-17T15:12:57.440Z,10.40
2018-07-17T15:15:26.044Z,10.98
2018-07-17T15:17:54.658Z,11.22
2018-07-17T15:20:23.265Z,10.70
2018-07-17T15:22:51.947Z,11.22
2018-07-17T15:25:20.521Z,10.65
2018-07-17T15:27:49.219Z,11.30
2018-07-17T15:30:17.815Z,10.78
2018-07-17T15:32:46.377Z,11.88
2018-07-17T15:35:15.044Z,11.38
2018-07-17T15:37:43.583Z,10.80
2018-07-17T15:40:12.221Z,11.28
2018-07-17T15:42:40.798Z,11.73
2018-07-17T15:45:09.425Z,11.10
2018-07-17T15:47:38.026Z,11.03
2018-07-17T15:50:06.624Z,11.25
2018-07-17T15:52:35.250Z,11.35
2018-07-17T15:55:03.873Z,12.05
2018-07-17T15:57:32.510Z,11.70
2018-07-17T16:00:01.273Z,11.63
2018-07-17T16:02:29.838Z,12.55
2018-07-17T16:04:58.477Z,11.48
2018-07-17T16:07:27.153Z,11.60
2018-07-17T16:09:55.810Z,11.50
2018-07-17T16:12:24.410Z,11.85
2018-07-17T16:14:53.109Z,12.23
2018-07-17T16:17:21.840Z,11.30
2018-07-17T16:19:50.490Z,12.00
2018-07-17T16:22:19.083Z,11.63
2018-07-17T16:24:47.672Z,11.68
2018-07-17T16:27:16.293Z,11.30
2018-07-17T16:29:44.845Z,12.20
2018-07-17T16:32:13.449Z,12.93
2018-07-17T16:34:42.016Z,14.05
2018-07-17T16:37:10.633Z,14.30
2018-07-17T16:39:39.259Z,13.35
2018-07-17T16:42:07.894Z,12.68
2018-07-17T16:44:36.489Z,12.73
2018-07-17T16:47:05.221Z,13.70
2018-07-17T16:49:33.925Z,13.95
2018-07-17T16:52:02.521Z,14.58
2018-07-17T16:54:31.166Z,11.97
2018-07-17T16:56:59.739Z,13.15
2018-07-17T16:59:28.316Z,12.10
2018-07-17T17:01:56.939Z,11.15
2018-07-17T17:04:25.583Z,11.88
2018-07-17T17:06:54.177Z,12.33
2018-07-17T17:09:22.774Z,12.13
2018-07-17T17:11:51.362Z,12.65
2018-07-17T17:14:19.953Z,14.87
2018-07-17T17:16:48.521Z,14.90
2018-07-17T17:19:17.161Z,13.62
2018-07-17T17:21:45.761Z,14.50
2018-07-17T17:24:14.696Z,14.10
2018-07-17T17:26:43.273Z,12.85
2018-07-17T17:29:11.935Z,12.68
2018-07-17T17:31:40.577Z,11.55
2018-07-17T17:34:09.202Z,11.03
2018-07-17T17:36:37.885Z,11.50
2018-07-17T17:39:08.589Z,11.25
2018-07-17T17:41:37.263Z,11.63
2018-07-17T17:44:06.849Z,12.45
2018-07-17T17:46:35.462Z,12.73
2018-07-17T17:49:04.043Z,12.93
2018-07-17T17:51:32.753Z,15.88
2018-07-17T17:54:01.379Z,17.27
2018-07-17T17:56:30.123Z,14.23
2018-07-17T17:58:58.721Z,15.97
2018-07-17T18:01:27.301Z,17.57
2018-07-17T18:03:55.916Z,15.20
2018-07-17T18:06:24.516Z,14.73
2018-07-17T18:08:53.162Z,13.30
2018-07-17T18:11:21.805Z,15.37
2018-07-17T18:13:50.409Z,15.80
2018-07-17T18:16:18.996Z,15.83
2018-07-17T18:18:47.589Z,15.57
2018-07-17T18:21:16.258Z,15.60
2018-07-17T18:23:45.024Z,14.83
2018-07-17T18:26:13.601Z,15.70
2018-07-17T18:28:42.196Z,13.93
2018-07-17T18:31:13.519Z,16.37
2018-07-17T18:33:47.389Z,15.30
2018-07-17T18:36:19.318Z,14.37
2018-07-17T18:38:48.096Z,16.67
2018-07-17T18:41:17.766Z,17.60
2018-07-17T18:43:46.762Z,14.67
2018-07-17T18:46:15.373Z,15.80
2018-07-17T18:48:49.330Z,14.87
2018-07-17T18:51:18.381Z,15.63
2018-07-17T18:53:49.351Z,15.43
2018-07-17T18:56:20.184Z,19.20
2018-07-17T18:58:48.785Z,19.23
2018-07-17T19:01:17.445Z,18.70
2018-07-17T19:03:46.105Z,16.03
2018-07-17T19:06:17.714Z,15.80
2018-07-17T19:08:47.620Z,15.03
2018-07-17T19:11:17.565Z,15.30
2018-07-17T19:13:46.909Z,15.70
2018-07-17T19:16:17.512Z,16.17
2018-07-17T19:18:46.921Z,17.80
2018-07-17T19:21:16.066Z,17.00
2018-07-17T19:23:46.240Z,18.27
2018-07-17T19:26:15.161Z,21.83
2018-07-17T19:28:45.256Z,23.97
2018-07-17T19:31:14.868Z,25.17
2018-07-17T19:33:46.140Z,22.67
2018-07-17T19:36:16.119Z,20.83
2018-07-17T19:38:46.476Z,21.80
2018-07-17T19:41:15.082Z,19.70
2018-07-17T19:43:43.692Z,20.90
2018-07-17T19:46:12.313Z,21.90
2018-07-17T19:48:40.931Z,25.93
2018-07-17T19:51:09.550Z,26.87
2018-07-17T19:53:38.149Z,25.33
2018-07-17T19:56:06.724Z,27.43
2018-07-17T19:58:35.325Z,27.40
2018-07-17T20:01:04.010Z,27.57
2018-07-17T20:03:32.615Z,27.27
2018-07-17T20:06:01.237Z,24.00
2018-07-17T20:08:29.906Z,25.97
2018-07-17T20:10:58.464Z,25.83
2018-07-17T20:13:27.074Z,25.30
2018-07-17T20:15:55.301Z,24.30
2018-07-17T20:18:23.906Z,23.70
2018-07-17T20:20:52.548Z,23.53
2018-07-17T20:23:21.193Z,22.67
2018-07-17T20:25:49.921Z,16.20
2018-07-17T20:28:18.520Z,14.50
2018-07-17T20:30:47.125Z,14.67
2018-07-17T20:33:15.714Z,13.80
2018-07-17T20:35:44.339Z,13.53
2018-07-17T20:38:12.961Z,14.43
2018-07-17T20:40:41.607Z,14.97
2018-07-17T20:43:10.177Z,13.93
2018-07-17T20:45:38.773Z,14.20
2018-07-17T20:48:07.392Z,13.23
2018-07-17T20:50:35.961Z,13.80
2018-07-17T20:53:04.601Z,13.03
2018-07-17T20:55:33.202Z,13.70
2018-07-17T20:58:01.790Z,12.43
2018-07-17T21:00:30.422Z,13.87
2018-07-17T21:02:59.069Z,12.17
2018-07-17T21:05:27.746Z,12.47
2018-07-17T21:07:56.345Z,13.27
2018-07-17T21:10:24.987Z,12.83
2018-07-17T21:12:53.578Z,11.63
2018-07-17T21:15:22.164Z,12.20
2018-07-17T21:17:50.754Z,12.63
2018-07-17T21:20:19.352Z,12.20
2018-07-17T21:22:47.935Z,12.67
2018-07-17T21:25:16.549Z,12.87
2018-07-17T21:27:45.126Z,12.40
2018-07-17T21:30:13.709Z,12.00
2018-07-17T21:32:42.302Z,11.23
2018-07-17T21:35:10.872Z,12.70
2018-07-17T21:37:39.132Z,11.77
2018-07-17T21:40:07.819Z,12.70
2018-07-17T21:42:36.488Z,12.47
2018-07-17T21:45:05.153Z,11.90
2018-07-17T21:47:33.745Z,11.27
2018-07-17T21:50:02.321Z,12.97
2018-07-17T21:52:30.953Z,12.10
2018-07-17T21:54:59.512Z,11.80
2018-07-17T21:57:28.097Z,12.93
2018-07-17T21:59:56.680Z,12.23
2018-07-17T22:02:25.305Z,12.20
2018-07-17T22:04:53.963Z,12.20
2018-07-17T22:07:22.528Z,12.00
2018-07-17T22:09:51.149Z,11.60
2018-07-17T22:12:19.726Z,11.23
2018-07-17T22:14:48.321Z,12.00
2018-07-17T22:17:16.885Z,11.30
2018-07-17T22:19:45.531Z,11.57
2018-07-17T22:22:14.168Z,11.80
2018-07-17T22:24:42.781Z,11.50
2018-07-17T22:27:11.369Z,12.47
2018-07-17T22:29:39.957Z,11.67
2018-07-17T22:32:08.530Z,11.80
2018-07-17T22:34:37.122Z,12.27
2018-07-17T22:37:05.758Z,11.77
2018-07-17T22:39:34.334Z,12.67
2018-07-17T22:42:02.940Z,11.77
2018-07-17T22:44:31.512Z,11.97
2018-07-17T22:47:00.101Z,11.97
2018-07-17T22:49:28.674Z,12.03
2018-07-17T22:51:57.262Z,12.10
2018-07-17T22:54:25.825Z,11.63
2018-07-17T22:56:54.457Z,11.77
2018-07-17T22:59:23.137Z,11.37
2018-07-17T23:01:51.808Z,11.83
2018-07-17T23:04:20.393Z,12.50
2018-07-17T23:06:49.005Z,12.30
2018-07-17T23:09:17.600Z,12.00
2018-07-17T23:11:46.201Z,12.60
2018-07-17T23:14:14.773Z,12.87
2018-07-17T23:16:43.372Z,13.47
2018-07-17T23:19:11.949Z,12.27
2018-07-17T23:21:40.565Z,13.03
2018-07-17T23:24:09.234Z,13.30
2018-07-17T23:26:37.821Z,12.90
2018-07-17T23:29:06.438Z,12.93
2018-07-17T23:31:35.026Z,13.13
2018-07-17T23:34:03.706Z,13.97
2018-07-17T23:36:32.266Z,13.13
2018-07-17T23:39:00.885Z,13.73
2018-07-17T23:41:29.446Z,15.00
2018-07-17T23:43:58.044Z,13.27
2018-07-17T23:46:26.686Z,14.03
2018-07-17T23:48:55.269Z,14.80
2018-07-17T23:51:23.849Z,14.43
2018-07-17T23:53:52.412Z,12.73
2018-07-17T23:56:21.018Z,14.27
2018-07-17T23:58:49.585Z,14.87
